KNYG/NYG METAR and TAF weather

Enter ICAO airport designator
Station Type Date Time Source
KNYG METAR 2019/04/18 09:56 UTC NOAA

KNYG 180956Z AUTO 08005KT 10SM OVC011 14/12 A3003 RMK AO2 SLP171 T01390117


Station Type Date Time Source
KNYG Decoded METAR 2019/04/18 09:56 UTC NOAA

QUANTICO MARINE CORPS AIRFAC, VA, United States (KNYG) 38-30N 077-18W 3M
Apr 18, 2019 - 05:56 AM EDT / 2019.04.18 0956 UTC
Wind: from the E (080 degrees) at 6 MPH (5 KT):0
Visibility: 10 mile(s):0
Sky conditions: overcast
Temperature: 57.0 F (13.9 C)
Dew Point: 53.1 F (11.7 C)
Relative Humidity: 86%
Pressure (altimeter): 30.03 in. Hg (1016 hPa)
ob: KNYG 180956Z AUTO 08005KT 10SM OVC011 14/12 A3003 RMK AO2 SLP171 T01390117
cycle: 10

Station Type Date Time Source
KNYG TAF 2019/04/18 09:21 UTC NOAA

TAF KNYG 1809/1909 10009KT 9999 BKN015 BKN100 QNH3000INS
BECMG 1812/1814 16006KT 9999 SCT015 BKN100 QNH2991INS
FM181800 19009G16KT 9999 SCT015 SCT100 QNH2983INS
TEMPO 1818/1900 20012G22KT
BECMG 1903/1905 19009G16KT BKN015 BKN100 QNH2977INS T10/1811Z T25/1821Z

Example: see airport list